Time;durP1;ratioP1;P1;durP2;ratioP2;P2;SDS_P1;SDS_P2;PMS_P1;PMS_P2;Temp;Humidity;BMP_temperature;BMP_pressure;BME280_temperature;BME280_humidity;BME280_pressure;Samples;Min_cycle;Max_cycle;Signal;HPM_P1;HPM_P2
2021/01/28 00:01:01;;;;;;;17.07;10.75;;;;;;;-1.05;82.28;98236.40;1695152;84;21181;-61
2021/01/28 00:03:28;;;;;;;16.65;10.60;;;;;;;-1.07;82.23;98224.63;1690119;84;21203;-61
2021/01/28 00:05:56;;;;;;;13.58;9.65;;;;;;;-1.02;82.11;98220.72;1697434;84;21676;-62
2021/01/28 00:08:23;;;;;;;14.58;10.30;;;;;;;-1.00;81.97;98223.17;1706871;84;21203;-62
2021/01/28 00:10:50;;;;;;;16.20;10.50;;;;;;;-1.02;82.02;98215.38;1699233;84;21157;-62
2021/01/28 00:13:17;;;;;;;15.55;10.65;;;;;;;-1.06;82.12;98204.05;1706053;84;21680;-62
2021/01/28 00:15:45;;;;;;;14.80;10.05;;;;;;;-1.04;82.06;98217.48;1695385;84;21154;-62
2021/01/28 00:18:13;;;;;;;16.15;10.80;;;;;;;-1.03;81.94;98220.42;1696815;84;21158;-62
2021/01/28 00:20:45;;;;;;;14.78;9.58;;;;;;;-1.01;81.88;98208.18;1687796;84;21134;-61
2021/01/28 00:23:13;;;;;;;14.53;10.00;;;;;;;-1.02;81.79;98201.20;1695305;84;21546;-62
2021/01/28 00:25:40;;;;;;;18.00;10.93;;;;;;;-1.05;81.93;98198.49;1687018;84;21158;-61
2021/01/28 00:28:10;;;;;;;14.15;10.18;;;;;;;-1.08;81.99;98193.63;1709073;83;21338;-61
2021/01/28 00:30:44;;;;;;;14.50;9.33;;;;;;;-0.98;81.75;98186.34;1703770;84;21146;-61
2021/01/28 00:33:14;;;;;;;14.20;9.75;;;;;;;-1.06;81.87;98180.83;1636276;88;21209;-61
2021/01/28 00:35:44;;;;;;;13.35;9.25;;;;;;;-1.02;81.78;98185.18;1694658;84;21158;-62
2021/01/28 00:38:16;;;;;;;13.62;9.18;;;;;;;-1.01;81.77;98186.81;1636453;88;21189;-61
2021/01/28 00:40:44;;;;;;;14.68;9.45;;;;;;;-1.09;81.87;98181.83;1701507;84;21663;-61
2021/01/28 00:43:12;;;;;;;13.98;8.93;;;;;;;-1.00;81.46;98188.45;1698819;83;21369;-61
2021/01/28 00:45:40;;;;;;;17.27;10.30;;;;;;;-1.03;81.50;98170.23;1704936;83;21275;-61
2021/01/28 00:48:09;;;;;;;12.63;7.83;;;;;;;-1.02;81.46;98166.48;1700172;83;21204;-61
2021/01/28 00:50:37;;;;;;;13.62;9.28;;;;;;;-1.08;81.58;98166.91;1632702;86;21312;-61
2021/01/28 00:53:05;;;;;;;11.93;8.38;;;;;;;-0.97;81.39;98190.64;1687026;84;21555;-61
2021/01/28 00:55:33;;;;;;;13.55;9.28;;;;;;;-0.98;81.31;98199.69;1657945;86;21170;-61
2021/01/28 00:58:09;;;;;;;13.30;8.20;;;;;;;-0.98;81.46;98185.00;1696006;83;21184;-62
2021/01/28 01:00:40;;;;;;;12.68;8.83;;;;;;;-0.93;81.34;98178.45;1697561;83;21180;-61
2021/01/28 01:03:13;;;;;;;13.18;8.38;;;;;;;-0.90;81.36;98175.30;1702105;83;21224;-60
2021/01/28 01:05:41;;;;;;;13.35;9.00;;;;;;;-0.94;81.48;98160.78;1700095;83;21161;-61
2021/01/28 01:08:14;;;;;;;14.53;9.65;;;;;;;-0.89;81.55;98170.25;1655873;86;21199;-61
2021/01/28 01:10:45;;;;;;;13.65;9.20;;;;;;;-0.90;81.57;98175.30;1705130;83;21287;-61
2021/01/28 01:13:17;;;;;;;15.60;9.93;;;;;;;-0.94;81.93;98161.30;1695613;83;21288;-61
2021/01/28 01:15:45;;;;;;;14.38;10.28;;;;;;;-0.87;81.87;98167.33;1722488;83;21284;-61
2021/01/28 01:18:16;;;;;;;16.45;10.08;;;;;;;-0.94;82.19;98178.15;1709066;83;21606;-61
2021/01/28 01:20:45;;;;;;;13.75;9.43;;;;;;;-0.93;82.38;98181.11;1709570;83;21585;-61
2021/01/28 01:23:14;;;;;;;13.85;9.40;;;;;;;-0.85;82.10;98177.27;1690390;83;21765;-61
2021/01/28 01:25:46;;;;;;;14.33;9.50;;;;;;;-0.82;82.08;98165.59;1714388;83;21691;-61
2021/01/28 01:28:14;;;;;;;14.25;9.38;;;;;;;-0.88;82.17;98163.84;1711487;83;21157;-61
2021/01/28 01:30:44;;;;;;;13.13;9.30;;;;;;;-0.89;82.38;98162.23;1719304;83;21212;-61
2021/01/28 01:33:12;;;;;;;13.70;9.13;;;;;;;-0.81;82.20;98169.86;1710623;83;21223;-61
2021/01/28 01:35:45;;;;;;;15.03;10.13;;;;;;;-0.85;82.23;98169.25;1698630;83;21298;-61
2021/01/28 01:38:13;;;;;;;14.25;9.30;;;;;;;-0.90;82.50;98163.27;1700535;83;21176;-61
2021/01/28 01:40:45;;;;;;;13.90;9.43;;;;;;;-0.93;82.65;98157.59;1672228;83;21157;-61
2021/01/28 01:43:14;;;;;;;13.03;9.38;;;;;;;-0.92;82.58;98154.67;1722696;83;21696;-61
2021/01/28 01:45:46;;;;;;;12.85;8.88;;;;;;;-0.84;82.42;98163.66;1719240;83;21153;-62
2021/01/28 01:48:32;;;;;;;14.45;9.28;;;;;;;-0.88;82.53;98155.83;1713923;83;21153;-62
2021/01/28 01:51:40;;;;;;;13.38;10.10;;;;;;;-0.84;82.42;98145.48;1688523;83;21153;-62
2021/01/28 01:54:24;;;;;;;14.33;9.90;;;;;;;-0.84;82.36;98136.94;1717508;83;21219;-62
2021/01/28 01:57:19;;;;;;;15.23;10.43;;;;;;;-0.90;82.67;98127.21;1708001;83;21292;-62
2021/01/28 01:59:56;;;;;;;15.78;10.55;;;;;;;-0.84;82.60;98116.09;1695998;83;21654;-62
2021/01/28 02:02:26;;;;;;;14.10;10.60;;;;;;;-0.84;82.74;98112.08;1711286;83;21474;-61
2021/01/28 02:05:18;;;;;;;15.50;10.55;;;;;;;-0.75;82.47;98110.67;1765416;79;23451;-59
2021/01/28 02:07:48;;;;;;;15.28;10.15;;;;;;;-0.83;82.66;98108.37;1693922;82;21564;-62
2021/01/28 02:10:28;;;;;;;14.93;9.40;;;;;;;-0.81;82.85;98099.58;1756098;79;22975;-62
2021/01/28 02:13:14;;;;;;;14.13;10.03;;;;;;;-0.76;82.50;98111.19;1667320;84;21341;-62
2021/01/28 02:15:43;;;;;;;12.58;9.50;;;;;;;-0.74;82.39;98114.94;1661301;85;21166;-61
2021/01/28 02:18:13;;;;;;;14.65;9.85;;;;;;;-0.78;82.60;98112.48;1683619;85;21190;-62
2021/01/28 02:21:03;;;;;;;14.93;9.60;;;;;;;-0.77;82.81;98110.89;1765691;79;22905;-59
2021/01/28 02:24:06;;;;;;;13.28;10.30;;;;;;;-0.75;82.60;98120.84;1725057;82;21368;-62
2021/01/28 02:26:34;;;;;;;13.48;9.00;;;;;;;-0.73;82.67;98102.69;1721671;83;21155;-62
2021/01/28 02:29:16;;;;;;;12.60;9.28;;;;;;;-0.76;82.77;98101.84;1718691;83;21376;-61
2021/01/28 02:31:46;;;;;;;13.43;9.33;;;;;;;-0.73;82.67;98095.20;1672226;84;21144;-60
2021/01/28 02:34:14;;;;;;;14.20;10.43;;;;;;;-0.68;82.55;98099.31;1705009;83;21170;-61
2021/01/28 02:36:52;;;;;;;11.38;8.10;;;;;;;-0.71;82.79;98097.91;1813490;79;22649;-60
2021/01/28 02:39:28;;;;;;;13.03;9.20;;;;;;;-0.68;82.47;98105.47;1761654;80;21152;-60
2021/01/28 02:42:07;;;;;;;14.18;9.00;;;;;;;-0.70;82.33;98090.70;1725638;82;21744;-62
2021/01/28 02:44:35;;;;;;;12.85;8.88;;;;;;;-0.73;82.65;98079.98;1741205;81;21600;-62
2021/01/28 02:47:02;;;;;;;11.88;8.98;;;;;;;-0.61;82.32;98090.63;1743773;81;21161;-62
2021/01/28 02:49:45;;;;;;;13.95;9.80;;;;;;;-0.56;82.32;98088.84;1747864;79;23266;-60
2021/01/28 02:52:13;;;;;;;13.40;9.60;;;;;;;-0.62;82.49;98094.34;1718976;82;21200;-62
2021/01/28 02:54:45;;;;;;;11.85;8.20;;;;;;;-0.59;82.41;98083.16;1722684;82;21322;-62
2021/01/28 02:57:13;;;;;;;11.57;8.30;;;;;;;-0.52;82.20;98082.48;1695136;83;21296;-62
2021/01/28 02:59:42;;;;;;;11.50;8.53;;;;;;;-0.60;82.38;98095.70;1664719;85;21181;-61
2021/01/28 03:02:17;;;;;;;11.88;8.05;;;;;;;-0.56;82.25;98089.36;1621957;87;21564;-62
2021/01/28 03:04:45;;;;;;;11.60;9.10;;;;;;;-0.50;82.02;98094.55;1657642;85;21192;-62
2021/01/28 03:07:21;;;;;;;10.93;9.25;;;;;;;-0.50;82.19;98093.77;1760490;79;28289;-61
2021/01/28 03:09:49;;;;;;;11.15;8.33;;;;;;;-0.35;81.74;98098.55;1630263;85;21338;-62
2021/01/28 03:12:29;;;;;;;10.95;8.43;;;;;;;-0.14;80.99;98099.17;1656904;86;21346;-62
2021/01/28 03:15:09;;;;;;;11.85;9.58;;;;;;;-0.22;80.99;98095.58;1662292;86;21172;-61
2021/01/28 03:17:39;;;;;;;10.55;7.80;;;;;;;-0.38;81.40;98105.19;1657241;85;21328;-61
2021/01/28 03:20:09;;;;;;;12.25;8.30;;;;;;;-0.32;81.21;98107.45;1666246;85;21316;-62
2021/01/28 03:22:38;;;;;;;12.33;8.30;;;;;;;-0.31;81.19;98101.02;1659704;85;21290;-63
2021/01/28 03:25:29;;;;;;;10.95;8.05;;;;;;;-0.41;81.59;98096.31;1796669;79;22906;-62
2021/01/28 03:27:57;;;;;;;10.23;6.95;;;;;;;-0.44;81.63;98080.77;1714299;83;21157;-62
2021/01/28 03:30:33;;;;;;;12.28;8.65;;;;;;;-0.35;81.37;98090.52;1722871;81;21304;-61
2021/01/28 03:33:02;;;;;;;11.03;7.67;;;;;;;-0.45;81.75;98094.36;1717390;82;21310;-62
2021/01/28 03:35:30;;;;;;;11.55;7.33;;;;;;;-0.51;81.78;98090.80;1753997;81;21576;-61
2021/01/28 03:37:59;;;;;;;10.20;7.95;;;;;;;-0.42;81.43;98083.18;1730600;83;21192;-62
2021/01/28 03:40:29;;;;;;;11.88;7.62;;;;;;;-0.46;81.55;98089.53;1728685;83;21217;-62
2021/01/28 03:42:59;;;;;;;10.72;7.72;;;;;;;-0.48;81.72;98094.33;1740495;81;21169;-62
2021/01/28 03:45:29;;;;;;;10.20;7.22;;;;;;;-0.39;81.42;98088.86;1725317;83;21168;-62
2021/01/28 03:47:58;;;;;;;11.33;7.33;;;;;;;-0.37;81.43;98078.75;1705786;83;21162;-62
2021/01/28 03:50:43;;;;;;;9.75;6.90;;;;;;;-0.42;81.73;98077.83;1776121;79;22884;-60
2021/01/28 03:53:12;;;;;;;9.70;6.90;;;;;;;-0.38;81.38;98087.81;1666399;82;21165;-60
2021/01/28 03:55:54;;;;;;;10.93;7.42;;;;;;;-0.37;81.37;98084.62;1700303;83;21097;-60
2021/01/28 03:58:21;;;;;;;8.78;6.28;;;;;;;-0.45;81.56;98076.98;1704533;83;21319;-59
2021/01/28 04:00:50;;;;;;;9.50;7.22;;;;;;;-0.37;81.37;98074.73;1698149;83;21122;-60
2021/01/28 04:03:19;;;;;;;10.05;7.00;;;;;;;-0.38;81.41;98076.30;1713599;83;21180;-63
2021/01/28 04:06:05;;;;;;;9.43;6.45;;;;;;;-0.46;81.65;98071.38;1695747;83;21623;-62
2021/01/28 04:08:56;;;;;;;9.18;6.90;;;;;;;-0.37;81.54;98069.39;1764793;79;22627;-62
2021/01/28 04:11:42;;;;;;;10.00;6.72;;;;;;;-0.40;81.50;98074.41;1700236;83;21148;-61
2021/01/28 04:14:21;;;;;;;10.00;7.00;;;;;;;-0.46;81.82;98076.17;1803254;79;22951;-60
2021/01/28 04:16:50;;;;;;;9.48;6.45;;;;;;;-0.41;81.69;98076.79;1791678;80;21153;-61
2021/01/28 04:19:18;;;;;;;9.50;5.58;;;;;;;-0.38;81.50;98074.97;1778364;80;21184;-59
2021/01/28 04:21:47;;;;;;;8.75;6.95;;;;;;;-0.41;81.68;98079.47;1744680;81;21156;-59
2021/01/28 04:24:14;;;;;;;8.50;6.30;;;;;;;-0.43;81.77;98071.70;1730821;81;21188;-61
2021/01/28 04:26:44;;;;;;;9.85;6.92;;;;;;;-0.36;81.58;98084.91;1775375;80;21597;-61
2021/01/28 04:29:12;;;;;;;10.23;6.78;;;;;;;-0.46;81.81;98081.52;1787952;80;21596;-61
2021/01/28 04:31:42;;;;;;;9.65;6.97;;;;;;;-0.34;81.53;98068.91;1763220;80;21141;-62
2021/01/28 04:34:21;;;;;;;9.98;6.97;;;;;;;-0.27;81.54;98069.55;1790525;79;22636;-61
2021/01/28 04:36:50;;;;;;;10.05;6.72;;;;;;;-0.36;81.67;98080.37;1732975;81;21604;-61
2021/01/28 04:39:19;;;;;;;7.80;6.12;;;;;;;-0.34;81.56;98083.61;1766906;80;21190;-61
2021/01/28 04:41:48;;;;;;;10.13;6.47;;;;;;;-0.30;81.21;98080.73;1769659;80;21141;-61
2021/01/28 04:44:16;;;;;;;9.55;6.33;;;;;;;-0.33;81.39;98085.23;1768572;80;21138;-61
2021/01/28 04:46:56;;;;;;;8.25;6.42;;;;;;;-0.19;81.17;98084.39;1804541;79;22459;-58
2021/01/28 04:49:57;;;;;;;8.90;6.03;;;;;;;-0.27;81.24;98078.09;1766088;80;21187;-61
2021/01/28 04:52:29;;;;;;;8.58;6.40;;;;;;;-0.34;81.40;98080.94;1735556;82;21153;-59
2021/01/28 04:55:15;;;;;;;9.88;6.60;;;;;;;-0.30;81.32;98070.56;1699466;83;21616;-59
2021/01/28 04:57:47;;;;;;;9.48;6.55;;;;;;;-0.37;81.62;98057.87;1707588;83;21525;-60
2021/01/28 05:00:18;;;;;;;9.23;6.30;;;;;;;-0.37;81.68;98052.53;1706006;83;21213;-59
2021/01/28 05:02:49;;;;;;;9.00;6.47;;;;;;;-0.28;81.38;98063.09;1672764;83;21158;-60
2021/01/28 05:05:34;;;;;;;8.35;6.42;;;;;;;-0.29;81.52;98074.88;1670046;85;21315;-60
2021/01/28 05:08:20;;;;;;;9.73;6.62;;;;;;;-0.33;81.69;98071.88;1720163;83;21395;-60
2021/01/28 05:11:24;;;;;;;9.28;6.92;;;;;;;-0.21;81.29;98067.23;1692855;85;21177;-60
2021/01/28 05:14:18;;;;;;;9.78;6.53;;;;;;;-0.27;81.50;98048.16;1765565;79;22643;-61
2021/01/28 05:16:53;;;;;;;8.03;6.20;;;;;;;-0.36;81.76;98056.84;1702014;83;21180;-61
2021/01/28 05:19:43;;;;;;;9.58;6.67;;;;;;;-0.27;81.53;98053.52;1720913;83;21572;-62
2021/01/28 05:22:36;;;;;;;8.90;6.15;;;;;;;-0.35;81.74;98046.41;1722735;83;21118;-61
2021/01/28 05:25:18;;;;;;;8.30;5.92;;;;;;;-0.30;81.89;98031.80;1776120;79;22862;-61
2021/01/28 05:27:59;;;;;;;8.30;5.95;;;;;;;-0.41;82.04;98022.80;1736651;82;21573;-61
2021/01/28 05:30:42;;;;;;;9.20;6.72;;;;;;;-0.34;82.03;98023.45;1730985;82;21438;-61
2021/01/28 05:33:39;;;;;;;10.00;6.37;;;;;;;-0.39;82.17;98018.01;1720660;82;22056;-61
2021/01/28 05:36:23;;;;;;;8.00;5.72;;;;;;;-0.28;82.14;98015.78;1778861;79;22445;-59
2021/01/28 05:39:07;;;;;;;10.78;6.08;;;;;;;-0.35;82.17;98015.14;1688309;84;21178;-60
2021/01/28 05:41:43;;;;;;;9.98;6.53;;;;;;;-0.35;82.43;98011.64;1793774;79;22840;-59
2021/01/28 05:44:28;;;;;;;9.05;6.33;;;;;;;-0.40;82.48;98006.23;1750353;82;21177;-60
2021/01/28 05:47:14;;;;;;;7.60;5.90;;;;;;;-0.41;82.47;98016.12;1740361;80;21152;-59
2021/01/28 05:50:31;;;;;;;7.37;5.58;;;;;;;-0.25;82.17;98017.18;1780244;79;22830;-59
2021/01/28 05:53:15;;;;;;;8.98;6.20;;;;;;;-0.30;82.24;98018.42;1749741;81;21207;-61
2021/01/28 05:55:46;;;;;;;8.15;5.60;;;;;;;-0.37;82.46;98027.14;1740643;82;21628;-62
2021/01/28 05:58:41;;;;;;;9.10;6.10;;;;;;;-0.28;82.18;98035.02;1729240;82;21831;-62
2021/01/28 06:01:33;;;;;;;8.80;6.28;;;;;;;-0.26;82.09;98045.78;1756111;82;21200;-63
2021/01/28 06:04:27;;;;;;;8.40;6.22;;;;;;;-0.34;82.22;98052.05;1749795;82;21156;-63
2021/01/28 06:07:29;;;;;;;8.13;6.20;;;;;;;-0.16;81.89;98041.92;1789810;79;22335;-60
2021/01/28 06:10:46;;;;;;;8.15;5.62;;;;;;;-0.23;81.94;98049.30;1749102;81;21164;-62
2021/01/28 06:14:07;;;;;;;7.87;6.00;;;;;;;-0.32;82.23;98029.91;1755225;81;21169;-61
2021/01/28 06:17:24;;;;;;;7.03;5.25;;;;;;;-0.32;82.05;98032.58;1760928;81;21195;-60
2021/01/28 06:20:43;;;;;;;9.83;5.75;;;;;;;-0.29;82.44;98037.44;1815043;79;22620;-60
2021/01/28 06:23:35;;;;;;;6.58;4.78;;;;;;;-0.39;82.56;98038.61;1788294;80;21268;-61
2021/01/28 06:26:25;;;;;;;7.90;5.47;;;;;;;-0.29;82.38;98058.30;1693014;83;21308;-61
2021/01/28 06:29:24;;;;;;;7.00;5.10;;;;;;;-0.29;82.56;98063.66;1712621;82;21733;-62
2021/01/28 06:32:03;;;;;;;;;;;;;;;-0.35;82.73;98065.94;1743885;82;21121;-62
2021/01/28 06:35:15;;;;;;;7.55;5.17;;;;;;;-0.26;82.38;98057.00;1739353;82;20309;-62
2021/01/28 06:38:28;;;;;;;7.60;5.55;;;;;;;-0.27;82.42;98050.02;1734953;82;21609;-62
2021/01/28 06:41:16;;;;;;;7.22;5.33;;;;;;;-0.25;82.58;98042.59;1779943;79;22935;-60
2021/01/28 06:44:21;;;;;;;7.15;5.50;;;;;;;-0.25;82.43;98038.02;1737315;82;21129;-60
2021/01/28 06:47:19;;;;;;;8.08;5.28;;;;;;;-0.34;82.83;98042.16;1721035;83;21282;-61
2021/01/28 06:50:20;;;;;;;8.13;5.15;;;;;;;-0.19;82.54;98048.29;1750940;79;23387;-59
2021/01/28 06:53:10;;;;;;;7.85;5.08;;;;;;;-0.27;82.58;98029.97;1722686;83;21177;-62
2021/01/28 06:56:16;;;;;;;7.55;5.33;;;;;;;-0.32;82.87;98016.53;1715129;83;21153;-59
2021/01/28 06:59:15;;;;;;;6.37;4.67;;;;;;;-0.31;82.93;98014.94;1646492;87;21347;-59
2021/01/28 07:01:53;;;;;;;6.92;5.40;;;;;;;-0.29;82.81;98012.03;1690301;84;21152;-60
2021/01/28 07:04:37;;;;;;;7.65;4.92;;;;;;;-0.36;83.28;98014.88;1756825;79;22911;-61
2021/01/28 07:07:14;;;;;;;7.12;5.00;;;;;;;-0.31;83.25;98011.45;1702559;83;21153;-62
2021/01/28 07:10:07;;;;;;;5.83;4.25;;;;;;;-0.33;83.20;98009.56;1649208;87;21199;-63
2021/01/28 07:12:47;;;;;;;7.75;5.22;;;;;;;-0.31;83.24;98008.77;1630291;86;21207;-62
2021/01/28 07:15:33;;;;;;;7.12;5.10;;;;;;;-0.35;83.28;97992.93;1694849;83;21192;-62
2021/01/28 07:18:13;;;;;;;6.33;4.70;;;;;;;-0.28;83.33;97981.55;1810577;79;22676;-59
2021/01/28 07:21:00;;;;;;;7.58;4.70;;;;;;;-0.23;82.98;97986.45;1736155;81;21192;-61
2021/01/28 07:23:37;;;;;;;7.53;5.40;;;;;;;-0.23;83.03;97989.66;1750691;81;21212;-61
2021/01/28 07:26:14;;;;;;;6.20;4.25;;;;;;;-0.31;83.41;97996.74;1728359;82;21610;-61
2021/01/28 07:28:47;;;;;;;6.20;4.72;;;;;;;-0.26;83.26;97996.83;1753519;80;21160;-61
2021/01/28 07:31:42;;;;;;;6.08;4.17;;;;;;;-0.22;83.02;97994.77;1760664;81;21311;-62
2021/01/28 07:34:15;;;;;;;7.85;5.30;;;;;;;-0.29;83.39;97989.30;1724418;82;21200;-61
2021/01/28 07:36:51;;;;;;;6.12;4.62;;;;;;;-0.24;83.23;97979.48;1754973;81;21224;-61
2021/01/28 07:39:33;;;;;;;5.33;4.03;;;;;;;-0.31;83.48;97975.35;1797805;79;22483;-58
2021/01/28 07:42:30;;;;;;;5.42;3.90;;;;;;;-0.27;83.30;97975.16;1730471;81;21228;-60
2021/01/28 07:45:00;;;;;;;7.40;5.10;;;;;;;-0.28;83.18;97968.98;1743753;81;21142;-61
2021/01/28 07:47:47;;;;;;;5.70;4.50;;;;;;;-0.32;83.53;97975.09;1735983;79;28212;-59
2021/01/28 07:50:34;;;;;;;5.37;4.40;;;;;;;-0.09;82.90;97981.05;1694053;83;21145;-62
2021/01/28 07:53:37;;;;;;;7.20;4.60;;;;;;;0.05;81.99;97982.03;1722458;83;21275;-61
2021/01/28 07:56:05;;;;;;;6.92;3.70;;;;;;;-0.06;82.19;97986.42;1722541;83;21563;-61
2021/01/28 07:58:34;;;;;;;5.53;4.22;;;;;;;-0.04;82.21;97981.10;1722690;83;21745;-62
2021/01/28 08:01:09;;;;;;;5.85;3.90;;;;;;;-0.10;82.29;97986.63;1722514;83;21170;-61
2021/01/28 08:04:04;;;;;;;6.28;4.03;;;;;;;-0.20;82.62;97998.52;1696680;83;21234;-61
2021/01/28 08:06:32;;;;;;;6.58;4.58;;;;;;;-0.12;82.42;97992.77;1676123;85;21172;-61
2021/01/28 08:09:09;;;;;;;5.75;4.22;;;;;;;-0.23;82.57;97993.66;1683619;85;21198;-61
2021/01/28 08:11:39;;;;;;;5.78;3.98;;;;;;;-0.17;82.70;97997.50;1703634;84;21677;-61
2021/01/28 08:14:07;;;;;;;5.10;3.85;;;;;;;-0.08;82.55;97996.58;1712420;83;21158;-61
2021/01/28 08:16:34;;;;;;;6.97;4.30;;;;;;;-0.19;82.79;98000.97;1677095;85;21214;-61
2021/01/28 08:19:13;;;;;;;6.15;4.40;;;;;;;-0.23;82.70;98003.03;1664558;85;21168;-61
2021/01/28 08:21:41;;;;;;;5.95;4.08;;;;;;;-0.14;82.55;98005.56;1676504;85;21164;-61
2021/01/28 08:24:21;;;;;;;4.53;3.75;;;;;;;-0.18;82.80;98003.11;1691495;84;21154;-61
2021/01/28 08:26:49;;;;;;;4.95;3.72;;;;;;;-0.16;82.77;98013.03;1689603;84;21188;-61
2021/01/28 08:29:20;;;;;;;5.42;4.30;;;;;;;-0.12;82.75;98016.84;1694083;84;21149;-61
2021/01/28 08:31:53;;;;;;;5.58;3.92;;;;;;;-0.24;83.20;98005.41;1678510;84;21233;-61
2021/01/28 08:34:27;;;;;;;6.30;4.22;;;;;;;-0.20;83.26;98005.20;1684685;84;21769;-61
2021/01/28 08:37:02;;;;;;;5.33;3.85;;;;;;;-0.13;83.17;98017.88;1696349;83;21154;-61
2021/01/28 08:39:35;;;;;;;5.25;3.98;;;;;;;-0.22;83.37;97997.97;1711728;83;21170;-61
2021/01/28 08:42:15;;;;;;;5.40;3.33;;;;;;;-0.12;83.26;98006.14;1678253;85;21556;-60
2021/01/28 08:44:44;;;;;;;5.60;4.17;;;;;;;-0.13;83.47;97993.29;1678748;84;21680;-61
2021/01/28 08:47:23;;;;;;;5.55;4.10;;;;;;;-0.16;83.69;97991.63;1677880;84;21618;-61
2021/01/28 08:50:14;;;;;;;6.25;4.20;;;;;;;-0.09;83.58;97992.27;1688136;85;21189;-61
2021/01/28 08:52:42;;;;;;;5.15;4.03;;;;;;;-0.04;83.47;97985.67;1688601;85;21629;-61
2021/01/28 08:55:27;;;;;;;5.92;3.85;;;;;;;-0.20;83.75;97974.45;1663699;85;21901;-61
2021/01/28 09:00:00;;;;;;;5.62;4.00;;;;;;;-0.01;83.78;97955.75;1753312;79;23029;-61
2021/01/28 09:02:37;;;;;;;5.28;3.75;;;;;;;-0.13;84.20;97951.02;1698418;83;21165;-61
2021/01/28 09:05:32;;;;;;;5.53;4.10;;;;;;;-0.03;84.03;97963.19;1648233;87;21596;-60
2021/01/28 09:08:03;;;;;;;8.13;4.70;;;;;;;0.06;83.50;97976.45;1661271;84;21199;-61
2021/01/28 09:10:40;;;;;;;5.75;4.12;;;;;;;0.02;83.77;97976.66;1684565;84;21142;-61
2021/01/28 09:13:20;;;;;;;6.00;3.98;;;;;;;0.17;83.61;97988.09;1650057;85;21777;-60
2021/01/28 09:15:49;;;;;;;6.05;4.40;;;;;;;0.29;82.80;97988.25;1683255;85;21279;-61
2021/01/28 09:18:30;;;;;;;6.30;4.28;;;;;;;0.30;82.92;97985.05;1680717;84;21184;-61
2021/01/28 09:21:22;;;;;;;5.70;3.83;;;;;;;0.35;82.81;97969.06;1683392;85;21221;-61
2021/01/28 09:24:03;;;;;;;6.42;4.00;;;;;;;0.43;82.17;97968.61;1680890;84;21342;-61
2021/01/28 09:26:35;;;;;;;6.15;4.70;;;;;;;0.34;82.25;97964.23;1688477;85;21184;-60
2021/01/28 09:29:38;;;;;;;6.85;4.53;;;;;;;0.26;82.67;97956.63;1657575;85;21215;-59
2021/01/28 09:32:26;;;;;;;5.75;3.90;;;;;;;0.35;82.21;97948.47;1688769;85;21180;-59
2021/01/28 09:35:14;;;;;;;7.00;4.55;;;;;;;0.34;82.30;97948.17;1682898;84;21314;-60
2021/01/28 09:37:50;;;;;;;5.55;4.03;;;;;;;0.26;82.34;97949.13;1682563;85;21604;-59
2021/01/28 09:40:40;;;;;;;6.00;4.12;;;;;;;0.31;82.26;97947.87;1678685;85;21579;-59
2021/01/28 09:43:24;;;;;;;5.97;3.83;;;;;;;0.32;82.23;97942.80;1675874;85;21719;-59
2021/01/28 09:46:14;;;;;;;5.50;4.05;;;;;;;0.24;82.27;97946.72;1677903;85;21140;-60
2021/01/28 09:48:43;;;;;;;5.28;4.20;;;;;;;0.28;82.20;97944.36;1671858;84;21386;-59
2021/01/28 09:51:14;;;;;;;5.25;4.00;;;;;;;0.34;82.30;97948.17;1683677;85;21618;-60
2021/01/28 09:54:00;;;;;;;5.03;3.87;;;;;;;0.26;82.11;97939.77;1683686;85;21228;-60
2021/01/28 09:56:29;;;;;;;5.08;3.80;;;;;;;0.32;82.05;97940.91;1689938;83;21246;-59
2021/01/28 09:58:56;;;;;;;5.25;3.60;;;;;;;0.42;81.86;97941.05;1729761;81;21204;-59
2021/01/28 10:01:24;;;;;;;4.53;3.42;;;;;;;0.37;81.72;97943.66;1744465;82;21185;-60
2021/01/28 10:03:52;;;;;;;4.90;3.47;;;;;;;0.30;81.58;97947.58;1740847;81;21566;-59
2021/01/28 10:06:19;;;;;;;5.12;3.40;;;;;;;0.38;81.48;97944.47;1702140;84;21291;-60
2021/01/28 10:08:47;;;;;;;4.87;3.20;;;;;;;0.35;81.59;97932.41;1708962;84;21149;-60
2021/01/28 10:11:15;;;;;;;4.20;3.08;;;;;;;0.36;81.41;97919.80;1695251;84;21151;-60
2021/01/28 10:13:43;;;;;;;5.28;3.90;;;;;;;0.45;81.19;97919.13;1696386;84;21157;-59
2021/01/28 10:16:11;;;;;;;4.97;3.20;;;;;;;0.41;81.36;97918.02;1707789;84;21182;-59
2021/01/28 10:18:41;;;;;;;4.40;3.27;;;;;;;0.47;81.20;97922.36;1690765;84;21114;-58
2021/01/28 10:21:08;;;;;;;6.10;3.50;;;;;;;0.52;80.90;97923.47;1680725;85;21174;-59
2021/01/28 10:23:35;;;;;;;5.58;3.55;;;;;;;0.37;81.02;97924.92;1680934;84;21191;-59
2021/01/28 10:26:03;;;;;;;4.33;2.90;;;;;;;0.34;81.26;97924.61;1693549;82;21189;-60
2021/01/28 10:28:30;;;;;;;4.00;2.98;;;;;;;0.45;81.21;97930.37;1736622;81;21700;-59
2021/01/28 10:30:57;;;;;;;5.60;3.20;;;;;;;0.49;80.94;97930.16;1714335;83;21164;-59
2021/01/28 10:33:27;;;;;;;4.72;2.40;;;;;;;0.33;81.35;97922.98;1703273;84;21196;-59
2021/01/28 10:35:55;;;;;;;4.72;2.90;;;;;;;0.41;81.19;97923.37;1691748;84;21163;-59
2021/01/28 10:38:23;;;;;;;3.98;2.65;;;;;;;0.42;81.14;97929.53;1678347;84;21227;-59
2021/01/28 10:40:53;;;;;;;3.77;2.60;;;;;;;0.30;81.65;97926.98;1668719;84;21154;-60
2021/01/28 10:43:20;;;;;;;4.55;2.80;;;;;;;0.38;81.74;97933.23;1698918;84;21210;-59
2021/01/28 10:45:49;;;;;;;4.40;3.10;;;;;;;0.35;81.55;97938.28;1702205;84;21169;-59
2021/01/28 10:48:17;;;;;;;4.15;2.62;;;;;;;0.25;81.92;97936.27;1685189;84;21227;-58
2021/01/28 10:50:44;;;;;;;4.17;2.35;;;;;;;0.36;81.97;97941.22;1709095;84;21162;-59
2021/01/28 10:53:12;;;;;;;3.55;2.37;;;;;;;0.42;81.76;97924.99;1709229;84;21316;-59
2021/01/28 10:55:39;;;;;;;4.60;2.52;;;;;;;0.27;81.67;97920.80;1696425;84;21295;-59
2021/01/28 10:58:08;;;;;;;4.42;2.75;;;;;;;0.24;81.54;97932.52;1706631;82;21279;-60
2021/01/28 11:00:36;;;;;;;4.05;2.85;;;;;;;0.32;81.59;97933.44;1713362;83;21161;-59
2021/01/28 11:03:03;;;;;;;4.10;2.87;;;;;;;0.22;81.69;97912.69;1720579;83;21130;-59
2021/01/28 11:05:34;;;;;;;3.55;2.47;;;;;;;0.23;81.80;97921.01;1722566;83;21157;-59
2021/01/28 11:08:03;;;;;;;4.22;3.10;;;;;;;0.35;81.65;97922.22;1722863;83;21160;-59
2021/01/28 11:10:31;;;;;;;5.65;3.50;;;;;;;0.27;81.69;97925.33;1711831;83;21155;-60
2021/01/28 11:13:00;;;;;;;4.87;3.20;;;;;;;0.32;81.68;97931.54;1708440;84;21183;-58
2021/01/28 11:15:29;;;;;;;4.12;3.15;;;;;;;0.41;81.34;97931.92;1704485;83;21187;-59
2021/01/28 11:17:57;;;;;;;5.33;3.50;;;;;;;0.39;81.36;97926.80;1700319;83;21193;-59
2021/01/28 11:20:26;;;;;;;5.97;3.52;;;;;;;0.39;81.54;97927.36;1703379;83;21325;-59
2021/01/28 11:22:53;;;;;;;4.33;2.92;;;;;;;0.40;81.04;97919.06;1701544;83;21292;-59
2021/01/28 11:25:23;;;;;;;4.42;2.92;;;;;;;0.52;80.80;97916.26;1676573;85;21606;-59
2021/01/28 11:27:51;;;;;;;5.12;3.25;;;;;;;0.52;80.52;97908.23;1697501;84;21118;-59
2021/01/28 11:30:21;;;;;;;4.92;3.40;;;;;;;0.36;80.76;97909.91;1714855;83;21305;-59
2021/01/28 11:32:49;;;;;;;3.80;2.67;;;;;;;0.38;80.82;97909.67;1712488;83;21561;-60
2021/01/28 11:37:58;;;;;;;5.30;3.27;;;;;;;0.35;81.33;97904.30;1805808;79;22930;-59
2021/01/28 11:42:51;;;;;;;4.85;3.30;;;;;;;0.41;80.85;97893.92;1800808;79;22708;-59
2021/01/28 11:45:23;;;;;;;5.17;3.20;;;;;;;0.30;81.09;97892.19;1792062;80;21180;-59
2021/01/28 11:47:51;;;;;;;5.10;2.90;;;;;;;0.23;81.45;97880.86;1792140;80;21134;-60
2021/01/28 11:50:19;;;;;;;3.85;2.75;;;;;;;0.31;81.20;97877.75;1742454;81;21105;-62
2021/01/28 11:52:47;;;;;;;5.72;3.50;;;;;;;0.38;80.85;97884.25;1767621;80;21148;-62
2021/01/28 11:55:17;;;;;;;4.40;2.90;;;;;;;0.28;80.72;97873.43;1774689;80;21276;-61
2021/01/28 11:57:46;;;;;;;4.35;3.40;;;;;;;0.29;80.85;97881.19;1771586;80;21149;-60
2021/01/28 12:00:14;;;;;;;4.50;2.83;;;;;;;0.29;80.88;97883.87;1765126;80;21153;-62
2021/01/28 12:02:42;;;;;;;6.25;3.98;;;;;;;0.25;80.81;97877.95;1764937;80;21125;-61
2021/01/28 12:05:11;;;;;;;5.03;3.37;;;;;;;0.17;81.16;97883.73;1769245;80;21141;-61
2021/01/28 12:07:39;;;;;;;4.37;2.77;;;;;;;0.19;81.17;97872.24;1792053;80;21173;-61
2021/01/28 12:10:09;;;;;;;4.62;3.80;;;;;;;0.29;81.03;97867.81;1779530;80;21293;-60
2021/01/28 12:12:37;;;;;;;6.55;4.12;;;;;;;0.23;81.12;97859.98;1762519;80;21530;-60
2021/01/28 12:15:06;;;;;;;5.42;3.90;;;;;;;0.12;81.46;97855.57;1773058;80;21288;-61
2021/01/28 12:17:34;;;;;;;5.25;3.85;;;;;;;0.25;81.19;97852.53;1788591;80;21639;-60
2021/01/28 12:20:04;;;;;;;6.47;3.95;;;;;;;0.17;81.18;97835.58;1792102;80;21165;-61
2021/01/28 12:22:31;;;;;;;5.22;3.67;;;;;;;0.15;81.37;97837.67;1768012;80;21506;-61